sensor_id;sensor_type;location;lat;lon;timestamp;P1;durP1;ratioP1;P2;durP2;ratioP2
8881;SDS011;4477;48.736;9.176;2023-08-12T00:01:28;6.07;;;4.80;;
8881;SDS011;4477;48.736;9.176;2023-08-12T00:03:55;5.00;;;4.57;;
8881;SDS011;4477;48.736;9.176;2023-08-12T00:06:22;5.73;;;5.20;;
8881;SDS011;4477;48.736;9.176;2023-08-12T00:08:48;5.97;;;4.73;;
8881;SDS011;4477;48.736;9.176;2023-08-12T00:11:15;5.63;;;5.13;;
8881;SDS011;4477;48.736;9.176;2023-08-12T00:13:42;5.50;;;5.03;;
8881;SDS011;4477;48.736;9.176;2023-08-12T00:16:09;5.33;;;4.73;;
8881;SDS011;4477;48.736;9.176;2023-08-12T00:18:40;5.80;;;5.27;;
8881;SDS011;4477;48.736;9.176;2023-08-12T00:21:08;5.73;;;5.23;;
8881;SDS011;4477;48.736;9.176;2023-08-12T00:23:37;5.73;;;5.23;;
8881;SDS011;4477;48.736;9.176;2023-08-12T00:26:05;5.30;;;4.83;;
8881;SDS011;4477;48.736;9.176;2023-08-12T00:28:32;6.63;;;5.40;;
8881;SDS011;4477;48.736;9.176;2023-08-12T00:30:59;5.83;;;5.33;;
8881;SDS011;4477;48.736;9.176;2023-08-12T00:33:26;6.17;;;4.80;;
8881;SDS011;4477;48.736;9.176;2023-08-12T00:35:54;5.87;;;5.30;;
8881;SDS011;4477;48.736;9.176;2023-08-12T00:38:21;6.33;;;5.30;;
8881;SDS011;4477;48.736;9.176;2023-08-12T00:40:48;5.70;;;5.20;;
8881;SDS011;4477;48.736;9.176;2023-08-12T00:43:15;6.13;;;5.57;;
8881;SDS011;4477;48.736;9.176;2023-08-12T00:45:42;6.33;;;5.27;;
8881;SDS011;4477;48.736;9.176;2023-08-12T00:48:09;7.00;;;5.83;;
8881;SDS011;4477;48.736;9.176;2023-08-12T00:50:37;6.20;;;5.60;;
8881;SDS011;4477;48.736;9.176;2023-08-12T00:53:07;5.60;;;5.10;;
8881;SDS011;4477;48.736;9.176;2023-08-12T00:55:34;6.40;;;5.80;;
8881;SDS011;4477;48.736;9.176;2023-08-12T00:58:03;6.13;;;5.53;;
8881;SDS011;4477;48.736;9.176;2023-08-12T01:00:31;6.73;;;5.90;;
8881;SDS011;4477;48.736;9.176;2023-08-12T01:05:32;6.57;;;6.00;;
8881;SDS011;4477;48.736;9.176;2023-08-12T01:07:59;8.57;;;6.07;;
8881;SDS011;4477;48.736;9.176;2023-08-12T01:10:28;6.57;;;5.87;;
8881;SDS011;4477;48.736;9.176;2023-08-12T01:13:05;6.53;;;5.93;;
8881;SDS011;4477;48.736;9.176;2023-08-12T01:15:38;6.80;;;6.20;;
8881;SDS011;4477;48.736;9.176;2023-08-12T01:18:08;7.20;;;6.50;;
8881;SDS011;4477;48.736;9.176;2023-08-12T01:20:35;8.80;;;7.90;;
8881;SDS011;4477;48.736;9.176;2023-08-12T01:23:09;8.33;;;6.87;;
8881;SDS011;4477;48.736;9.176;2023-08-12T01:25:37;7.13;;;6.43;;
8881;SDS011;4477;48.736;9.176;2023-08-12T01:28:04;6.60;;;6.10;;
8881;SDS011;4477;48.736;9.176;2023-08-12T01:30:31;7.23;;;6.53;;
8881;SDS011;4477;48.736;9.176;2023-08-12T01:33:01;7.53;;;6.87;;
8881;SDS011;4477;48.736;9.176;2023-08-12T01:35:35;9.00;;;6.27;;
8881;SDS011;4477;48.736;9.176;2023-08-12T01:38:06;8.33;;;7.10;;
8881;SDS011;4477;48.736;9.176;2023-08-12T01:40:37;7.40;;;6.73;;
8881;SDS011;4477;48.736;9.176;2023-08-12T01:43:06;7.67;;;7.00;;
8881;SDS011;4477;48.736;9.176;2023-08-12T01:45:33;7.77;;;7.03;;
8881;SDS011;4477;48.736;9.176;2023-08-12T01:48:00;7.67;;;7.00;;
8881;SDS011;4477;48.736;9.176;2023-08-12T01:50:28;7.97;;;7.27;;
8881;SDS011;4477;48.736;9.176;2023-08-12T01:52:54;7.30;;;6.60;;
8881;SDS011;4477;48.736;9.176;2023-08-12T01:55:22;9.27;;;7.43;;
8881;SDS011;4477;48.736;9.176;2023-08-12T01:57:49;8.00;;;7.20;;
8881;SDS011;4477;48.736;9.176;2023-08-12T02:00:16;7.80;;;7.00;;
8881;SDS011;4477;48.736;9.176;2023-08-12T02:02:44;7.10;;;6.40;;
8881;SDS011;4477;48.736;9.176;2023-08-12T02:05:12;8.03;;;7.13;;
8881;SDS011;4477;48.736;9.176;2023-08-12T02:07:39;8.07;;;6.93;;
8881;SDS011;4477;48.736;9.176;2023-08-12T02:10:06;7.43;;;6.73;;
8881;SDS011;4477;48.736;9.176;2023-08-12T02:12:35;7.40;;;6.70;;
8881;SDS011;4477;48.736;9.176;2023-08-12T02:15:01;7.73;;;6.87;;
8881;SDS011;4477;48.736;9.176;2023-08-12T02:17:28;7.10;;;6.40;;
8881;SDS011;4477;48.736;9.176;2023-08-12T02:19:55;7.87;;;6.23;;
8881;SDS011;4477;48.736;9.176;2023-08-12T02:22:22;7.73;;;6.67;;
8881;SDS011;4477;48.736;9.176;2023-08-12T02:24:49;7.37;;;6.67;;
8881;SDS011;4477;48.736;9.176;2023-08-12T02:27:16;7.07;;;6.37;;
8881;SDS011;4477;48.736;9.176;2023-08-12T02:29:44;7.33;;;6.67;;
8881;SDS011;4477;48.736;9.176;2023-08-12T02:32:11;6.50;;;5.80;;
8881;SDS011;4477;48.736;9.176;2023-08-12T02:34:38;8.40;;;7.00;;
8881;SDS011;4477;48.736;9.176;2023-08-12T02:37:05;7.73;;;6.67;;
8881;SDS011;4477;48.736;9.176;2023-08-12T02:39:32;6.83;;;6.17;;
8881;SDS011;4477;48.736;9.176;2023-08-12T02:41:58;6.80;;;6.10;;
8881;SDS011;4477;48.736;9.176;2023-08-12T02:44:25;7.33;;;6.63;;
8881;SDS011;4477;48.736;9.176;2023-08-12T02:46:53;6.93;;;6.33;;
8881;SDS011;4477;48.736;9.176;2023-08-12T02:49:20;6.97;;;6.37;;
8881;SDS011;4477;48.736;9.176;2023-08-12T02:51:47;7.17;;;6.50;;
8881;SDS011;4477;48.736;9.176;2023-08-12T02:54:14;6.80;;;6.20;;
8881;SDS011;4477;48.736;9.176;2023-08-12T02:56:41;7.80;;;7.00;;
8881;SDS011;4477;48.736;9.176;2023-08-12T02:59:08;8.50;;;7.03;;
8881;SDS011;4477;48.736;9.176;2023-08-12T03:01:34;8.63;;;6.13;;
8881;SDS011;4477;48.736;9.176;2023-08-12T03:04:03;6.70;;;6.10;;
8881;SDS011;4477;48.736;9.176;2023-08-12T03:06:32;7.20;;;6.50;;
8881;SDS011;4477;48.736;9.176;2023-08-12T03:08:59;7.77;;;6.83;;
8881;SDS011;4477;48.736;9.176;2023-08-12T03:11:26;7.60;;;6.80;;
8881;SDS011;4477;48.736;9.176;2023-08-12T03:13:53;7.00;;;6.40;;
8881;SDS011;4477;48.736;9.176;2023-08-12T03:16:19;7.20;;;6.50;;
8881;SDS011;4477;48.736;9.176;2023-08-12T03:18:46;7.10;;;6.50;;
8881;SDS011;4477;48.736;9.176;2023-08-12T03:21:15;8.67;;;6.30;;
8881;SDS011;4477;48.736;9.176;2023-08-12T03:23:42;7.50;;;6.60;;
8881;SDS011;4477;48.736;9.176;2023-08-12T03:26:08;6.90;;;6.30;;
8881;SDS011;4477;48.736;9.176;2023-08-12T03:28:36;7.50;;;6.67;;
8881;SDS011;4477;48.736;9.176;2023-08-12T03:31:03;7.17;;;6.57;;
8881;SDS011;4477;48.736;9.176;2023-08-12T03:33:29;7.43;;;6.73;;
8881;SDS011;4477;48.736;9.176;2023-08-12T03:35:57;7.67;;;6.87;;
8881;SDS011;4477;48.736;9.176;2023-08-12T03:38:25;7.50;;;6.77;;
8881;SDS011;4477;48.736;9.176;2023-08-12T03:40:52;8.13;;;6.83;;
8881;SDS011;4477;48.736;9.176;2023-08-12T03:43:19;9.93;;;7.17;;
8881;SDS011;4477;48.736;9.176;2023-08-12T03:45:47;7.63;;;6.93;;
8881;SDS011;4477;48.736;9.176;2023-08-12T03:48:14;7.53;;;6.73;;
8881;SDS011;4477;48.736;9.176;2023-08-12T03:50:41;8.13;;;6.60;;
8881;SDS011;4477;48.736;9.176;2023-08-12T03:53:10;7.57;;;6.77;;
8881;SDS011;4477;48.736;9.176;2023-08-12T03:55:38;7.23;;;6.17;;
8881;SDS011;4477;48.736;9.176;2023-08-12T03:58:05;8.07;;;6.70;;
8881;SDS011;4477;48.736;9.176;2023-08-12T04:00:32;6.50;;;5.90;;
8881;SDS011;4477;48.736;9.176;2023-08-12T04:02:59;7.47;;;6.70;;
8881;SDS011;4477;48.736;9.176;2023-08-12T04:05:26;6.47;;;5.87;;
8881;SDS011;4477;48.736;9.176;2023-08-12T04:07:52;8.60;;;6.87;;
8881;SDS011;4477;48.736;9.176;2023-08-12T04:10:19;7.03;;;6.33;;
8881;SDS011;4477;48.736;9.176;2023-08-12T04:12:47;6.60;;;6.00;;
8881;SDS011;4477;48.736;9.176;2023-08-12T04:15:14;8.63;;;6.40;;
8881;SDS011;4477;48.736;9.176;2023-08-12T04:17:41;8.00;;;6.33;;
8881;SDS011;4477;48.736;9.176;2023-08-12T04:20:08;6.93;;;6.27;;
8881;SDS011;4477;48.736;9.176;2023-08-12T04:22:35;7.37;;;6.57;;
8881;SDS011;4477;48.736;9.176;2023-08-12T04:25:02;6.60;;;6.00;;
8881;SDS011;4477;48.736;9.176;2023-08-12T04:27:30;6.93;;;6.20;;
8881;SDS011;4477;48.736;9.176;2023-08-12T04:29:58;6.87;;;6.20;;
8881;SDS011;4477;48.736;9.176;2023-08-12T04:32:25;8.00;;;7.20;;
8881;SDS011;4477;48.736;9.176;2023-08-12T04:34:51;7.50;;;5.73;;
8881;SDS011;4477;48.736;9.176;2023-08-12T04:37:18;8.30;;;6.50;;
8881;SDS011;4477;48.736;9.176;2023-08-12T04:39:45;7.10;;;6.40;;
8881;SDS011;4477;48.736;9.176;2023-08-12T04:42:12;7.13;;;6.43;;
8881;SDS011;4477;48.736;9.176;2023-08-12T04:44:39;8.27;;;6.70;;
8881;SDS011;4477;48.736;9.176;2023-08-12T04:47:07;7.60;;;6.27;;
8881;SDS011;4477;48.736;9.176;2023-08-12T04:49:35;8.70;;;6.13;;
8881;SDS011;4477;48.736;9.176;2023-08-12T04:52:02;8.50;;;6.80;;
8881;SDS011;4477;48.736;9.176;2023-08-12T04:54:29;9.07;;;7.10;;
8881;SDS011;4477;48.736;9.176;2023-08-12T04:56:56;8.53;;;7.73;;
8881;SDS011;4477;48.736;9.176;2023-08-12T04:59:23;8.27;;;7.47;;
8881;SDS011;4477;48.736;9.176;2023-08-12T05:01:49;8.53;;;7.40;;
8881;SDS011;4477;48.736;9.176;2023-08-12T05:04:18;7.90;;;7.20;;
8881;SDS011;4477;48.736;9.176;2023-08-12T05:06:44;7.87;;;7.07;;
8881;SDS011;4477;48.736;9.176;2023-08-12T05:09:11;7.87;;;7.23;;
8881;SDS011;4477;48.736;9.176;2023-08-12T05:11:38;7.70;;;7.03;;
8881;SDS011;4477;48.736;9.176;2023-08-12T05:14:05;9.17;;;7.23;;
8881;SDS011;4477;48.736;9.176;2023-08-12T05:16:32;7.77;;;7.07;;
8881;SDS011;4477;48.736;9.176;2023-08-12T05:18:58;8.20;;;7.40;;
8881;SDS011;4477;48.736;9.176;2023-08-12T05:21:27;7.60;;;6.80;;
8881;SDS011;4477;48.736;9.176;2023-08-12T05:23:54;7.73;;;7.03;;
8881;SDS011;4477;48.736;9.176;2023-08-12T05:26:20;7.63;;;6.93;;
8881;SDS011;4477;48.736;9.176;2023-08-12T05:28:47;8.67;;;6.77;;
8881;SDS011;4477;48.736;9.176;2023-08-12T05:31:14;7.80;;;7.10;;
8881;SDS011;4477;48.736;9.176;2023-08-12T05:33:41;7.53;;;6.77;;
8881;SDS011;4477;48.736;9.176;2023-08-12T05:36:07;7.27;;;6.57;;
8881;SDS011;4477;48.736;9.176;2023-08-12T05:38:36;7.77;;;6.93;;
8881;SDS011;4477;48.736;9.176;2023-08-12T05:41:03;7.40;;;6.80;;
8881;SDS011;4477;48.736;9.176;2023-08-12T05:43:32;8.70;;;7.37;;
8881;SDS011;4477;48.736;9.176;2023-08-12T05:45:59;7.43;;;6.77;;
8881;SDS011;4477;48.736;9.176;2023-08-12T05:48:25;10.50;;;7.40;;
8881;SDS011;4477;48.736;9.176;2023-08-12T05:50:52;7.67;;;6.90;;
8881;SDS011;4477;48.736;9.176;2023-08-12T05:53:19;8.13;;;7.43;;
8881;SDS011;4477;48.736;9.176;2023-08-12T05:55:48;7.67;;;6.87;;
8881;SDS011;4477;48.736;9.176;2023-08-12T05:58:15;7.30;;;6.60;;
8881;SDS011;4477;48.736;9.176;2023-08-12T06:00:42;7.83;;;7.03;;
8881;SDS011;4477;48.736;9.176;2023-08-12T06:03:10;7.50;;;6.77;;
8881;SDS011;4477;48.736;9.176;2023-08-12T06:05:37;7.90;;;7.17;;
8881;SDS011;4477;48.736;9.176;2023-08-12T06:08:04;9.83;;;7.33;;
8881;SDS011;4477;48.736;9.176;2023-08-12T06:10:31;9.50;;;8.07;;
8881;SDS011;4477;48.736;9.176;2023-08-12T06:13:00;10.73;;;8.80;;
8881;SDS011;4477;48.736;9.176;2023-08-12T06:15:27;9.30;;;8.33;;
8881;SDS011;4477;48.736;9.176;2023-08-12T06:17:54;10.20;;;8.70;;
8881;SDS011;4477;48.736;9.176;2023-08-12T06:20:21;9.90;;;8.90;;
8881;SDS011;4477;48.736;9.176;2023-08-12T06:22:49;9.27;;;8.40;;
8881;SDS011;4477;48.736;9.176;2023-08-12T06:25:16;8.63;;;7.77;;
8881;SDS011;4477;48.736;9.176;2023-08-12T06:27:43;8.70;;;7.90;;
8881;SDS011;4477;48.736;9.176;2023-08-12T06:30:12;8.30;;;7.60;;
8881;SDS011;4477;48.736;9.176;2023-08-12T06:32:40;7.93;;;7.30;;
8881;SDS011;4477;48.736;9.176;2023-08-12T06:35:07;8.30;;;7.50;;
8881;SDS011;4477;48.736;9.176;2023-08-12T06:37:34;8.80;;;7.47;;
8881;SDS011;4477;48.736;9.176;2023-08-12T06:40:01;8.97;;;8.07;;
8881;SDS011;4477;48.736;9.176;2023-08-12T06:42:29;9.80;;;7.40;;
8881;SDS011;4477;48.736;9.176;2023-08-12T06:44:56;8.93;;;7.57;;
8881;SDS011;4477;48.736;9.176;2023-08-12T06:47:25;8.20;;;7.37;;
8881;SDS011;4477;48.736;9.176;2023-08-12T06:49:54;9.20;;;7.73;;
8881;SDS011;4477;48.736;9.176;2023-08-12T06:52:21;8.93;;;7.97;;
8881;SDS011;4477;48.736;9.176;2023-08-12T06:54:48;8.63;;;6.87;;
8881;SDS011;4477;48.736;9.176;2023-08-12T06:57:16;7.70;;;6.50;;
8881;SDS011;4477;48.736;9.176;2023-08-12T06:59:43;6.60;;;6.00;;
8881;SDS011;4477;48.736;9.176;2023-08-12T07:02:10;7.07;;;6.00;;
8881;SDS011;4477;48.736;9.176;2023-08-12T07:04:38;6.72;;;5.72;;
8881;SDS011;4477;48.736;9.176;2023-08-12T07:07:05;6.45;;;5.82;;
8881;SDS011;4477;48.736;9.176;2023-08-12T07:09:33;6.70;;;5.70;;
8881;SDS011;4477;48.736;9.176;2023-08-12T07:12:00;6.45;;;5.85;;
8881;SDS011;4477;48.736;9.176;2023-08-12T07:14:28;5.97;;;5.22;;
8881;SDS011;4477;48.736;9.176;2023-08-12T07:16:55;5.88;;;5.28;;
8881;SDS011;4477;48.736;9.176;2023-08-12T07:19:22;7.20;;;5.20;;
8881;SDS011;4477;48.736;9.176;2023-08-12T07:21:50;8.88;;;5.43;;
8881;SDS011;4477;48.736;9.176;2023-08-12T07:24:18;6.03;;;5.30;;
8881;SDS011;4477;48.736;9.176;2023-08-12T07:26:45;5.40;;;5.00;;
8881;SDS011;4477;48.736;9.176;2023-08-12T07:29:12;6.00;;;5.10;;
8881;SDS011;4477;48.736;9.176;2023-08-12T07:31:39;6.57;;;5.38;;
8881;SDS011;4477;48.736;9.176;2023-08-12T07:34:06;5.28;;;4.78;;
8881;SDS011;4477;48.736;9.176;2023-08-12T07:36:34;6.32;;;4.72;;
8881;SDS011;4477;48.736;9.176;2023-08-12T07:39:02;10.40;;;5.00;;
8881;SDS011;4477;48.736;9.176;2023-08-12T07:41:29;5.38;;;4.90;;
8881;SDS011;4477;48.736;9.176;2023-08-12T07:43:56;8.70;;;5.00;;
8881;SDS011;4477;48.736;9.176;2023-08-12T07:46:23;8.18;;;5.30;;
8881;SDS011;4477;48.736;9.176;2023-08-12T07:48:51;9.05;;;5.30;;
8881;SDS011;4477;48.736;9.176;2023-08-12T07:51:18;62.00;;;7.07;;
8881;SDS011;4477;48.736;9.176;2023-08-12T07:53:45;5.55;;;4.13;;
8881;SDS011;4477;48.736;9.176;2023-08-12T07:56:13;4.72;;;4.32;;
8881;SDS011;4477;48.736;9.176;2023-08-12T07:58:40;4.20;;;3.70;;
8881;SDS011;4477;48.736;9.176;2023-08-12T08:01:08;5.40;;;4.10;;
8881;SDS011;4477;48.736;9.176;2023-08-12T08:03:35;6.78;;;4.00;;
8881;SDS011;4477;48.736;9.176;2023-08-12T08:06:02;4.05;;;3.75;;
8881;SDS011;4477;48.736;9.176;2023-08-12T08:08:29;4.70;;;3.33;;
8881;SDS011;4477;48.736;9.176;2023-08-12T08:10:56;6.63;;;4.15;;
8881;SDS011;4477;48.736;9.176;2023-08-12T08:13:25;5.00;;;4.18;;
8881;SDS011;4477;48.736;9.176;2023-08-12T08:15:52;4.43;;;3.88;;
8881;SDS011;4477;48.736;9.176;2023-08-12T08:18:19;6.90;;;3.92;;
8881;SDS011;4477;48.736;9.176;2023-08-12T08:20:46;4.93;;;3.65;;
8881;SDS011;4477;48.736;9.176;2023-08-12T08:23:13;5.47;;;3.65;;
8881;SDS011;4477;48.736;9.176;2023-08-12T08:25:41;3.67;;;3.38;;
8881;SDS011;4477;48.736;9.176;2023-08-12T08:28:08;4.20;;;3.70;;
8881;SDS011;4477;48.736;9.176;2023-08-12T08:30:36;6.13;;;4.28;;
8881;SDS011;4477;48.736;9.176;2023-08-12T08:33:03;4.90;;;3.60;;
8881;SDS011;4477;48.736;9.176;2023-08-12T08:35:30;5.35;;;3.50;;
8881;SDS011;4477;48.736;9.176;2023-08-12T08:37:58;6.03;;;3.28;;
8881;SDS011;4477;48.736;9.176;2023-08-12T08:40:25;4.18;;;3.88;;
8881;SDS011;4477;48.736;9.176;2023-08-12T08:42:52;4.05;;;3.75;;
8881;SDS011;4477;48.736;9.176;2023-08-12T08:45:20;4.25;;;3.20;;
8881;SDS011;4477;48.736;9.176;2023-08-12T08:47:49;3.80;;;3.45;;
8881;SDS011;4477;48.736;9.176;2023-08-12T08:50:17;4.00;;;3.47;;
8881;SDS011;4477;48.736;9.176;2023-08-12T08:52:44;4.32;;;3.38;;
8881;SDS011;4477;48.736;9.176;2023-08-12T08:55:11;3.50;;;3.20;;
8881;SDS011;4477;48.736;9.176;2023-08-12T08:57:39;3.72;;;3.38;;
8881;SDS011;4477;48.736;9.176;2023-08-12T09:00:07;4.45;;;3.55;;
8881;SDS011;4477;48.736;9.176;2023-08-12T09:02:36;4.20;;;3.20;;
8881;SDS011;4477;48.736;9.176;2023-08-12T09:05:05;5.68;;;3.65;;
8881;SDS011;4477;48.736;9.176;2023-08-12T09:07:32;4.45;;;3.75;;
8881;SDS011;4477;48.736;9.176;2023-08-12T09:10:00;3.42;;;2.95;;
8881;SDS011;4477;48.736;9.176;2023-08-12T09:12:29;5.32;;;3.17;;
8881;SDS011;4477;48.736;9.176;2023-08-12T09:14:56;3.42;;;2.83;;
8881;SDS011;4477;48.736;9.176;2023-08-12T09:17:24;3.10;;;2.88;;
8881;SDS011;4477;48.736;9.176;2023-08-12T09:19:51;4.70;;;3.20;;
8881;SDS011;4477;48.736;9.176;2023-08-12T09:22:20;4.95;;;2.80;;
8881;SDS011;4477;48.736;9.176;2023-08-12T09:24:51;4.40;;;2.88;;
8881;SDS011;4477;48.736;9.176;2023-08-12T09:27:22;3.35;;;2.60;;
8881;SDS011;4477;48.736;9.176;2023-08-12T09:29:49;4.88;;;2.65;;
8881;SDS011;4477;48.736;9.176;2023-08-12T09:32:17;2.40;;;2.20;;
8881;SDS011;4477;48.736;9.176;2023-08-12T09:34:46;3.17;;;2.45;;
8881;SDS011;4477;48.736;9.176;2023-08-12T09:37:13;4.38;;;2.70;;
8881;SDS011;4477;48.736;9.176;2023-08-12T09:39:42;4.10;;;2.88;;
8881;SDS011;4477;48.736;9.176;2023-08-12T09:42:10;2.70;;;2.50;;
8881;SDS011;4477;48.736;9.176;2023-08-12T09:44:37;3.72;;;2.38;;
8881;SDS011;4477;48.736;9.176;2023-08-12T09:47:05;4.40;;;3.00;;
8881;SDS011;4477;48.736;9.176;2023-08-12T09:49:33;3.50;;;2.55;;
8881;SDS011;4477;48.736;9.176;2023-08-12T09:52:00;3.97;;;2.70;;
8881;SDS011;4477;48.736;9.176;2023-08-12T09:54:28;2.95;;;2.70;;
8881;SDS011;4477;48.736;9.176;2023-08-12T09:56:57;3.92;;;2.50;;
8881;SDS011;4477;48.736;9.176;2023-08-12T09:59:27;3.13;;;2.60;;
8881;SDS011;4477;48.736;9.176;2023-08-12T10:01:54;5.47;;;2.90;;
8881;SDS011;4477;48.736;9.176;2023-08-12T10:04:22;3.58;;;2.70;;
8881;SDS011;4477;48.736;9.176;2023-08-12T10:06:50;3.88;;;2.53;;
8881;SDS011;4477;48.736;9.176;2023-08-12T10:09:17;5.25;;;2.75;;
8881;SDS011;4477;48.736;9.176;2023-08-12T10:11:45;3.03;;;2.70;;
8881;SDS011;4477;48.736;9.176;2023-08-12T10:14:14;5.78;;;2.75;;
8881;SDS011;4477;48.736;9.176;2023-08-12T10:16:41;2.92;;;2.63;;
8881;SDS011;4477;48.736;9.176;2023-08-12T10:19:12;4.35;;;2.58;;
8881;SDS011;4477;48.736;9.176;2023-08-12T10:21:39;3.63;;;2.72;;
8881;SDS011;4477;48.736;9.176;2023-08-12T10:24:06;3.30;;;2.72;;
8881;SDS011;4477;48.736;9.176;2023-08-12T10:26:34;3.97;;;3.03;;
8881;SDS011;4477;48.736;9.176;2023-08-12T10:29:02;5.35;;;2.80;;
8881;SDS011;4477;48.736;9.176;2023-08-12T10:31:30;3.67;;;2.50;;
8881;SDS011;4477;48.736;9.176;2023-08-12T10:33:57;4.45;;;2.83;;
8881;SDS011;4477;48.736;9.176;2023-08-12T10:36:26;6.07;;;3.13;;
8881;SDS011;4477;48.736;9.176;2023-08-12T10:38:53;3.15;;;2.85;;
8881;SDS011;4477;48.736;9.176;2023-08-12T10:41:20;4.25;;;2.70;;
8881;SDS011;4477;48.736;9.176;2023-08-12T10:43:48;5.22;;;3.33;;
8881;SDS011;4477;48.736;9.176;2023-08-12T10:46:21;3.88;;;2.92;;
8881;SDS011;4477;48.736;9.176;2023-08-12T10:48:57;8.32;;;2.85;;
8881;SDS011;4477;48.736;9.176;2023-08-12T10:51:44;4.50;;;3.30;;
8881;SDS011;4477;48.736;9.176;2023-08-12T10:54:20;5.82;;;3.15;;
8881;SDS011;4477;48.736;9.176;2023-08-12T10:57:09;5.35;;;2.92;;
8881;SDS011;4477;48.736;9.176;2023-08-12T10:59:50;5.07;;;2.90;;
8881;SDS011;4477;48.736;9.176;2023-08-12T11:02:19;5.53;;;3.20;;
8881;SDS011;4477;48.736;9.176;2023-08-12T11:04:53;6.13;;;3.10;;
8881;SDS011;4477;48.736;9.176;2023-08-12T11:07:22;3.85;;;2.92;;
8881;SDS011;4477;48.736;9.176;2023-08-12T11:09:53;4.22;;;3.17;;
8881;SDS011;4477;48.736;9.176;2023-08-12T11:12:32;4.05;;;3.35;;
8881;SDS011;4477;48.736;9.176;2023-08-12T11:15:00;4.32;;;3.35;;
8881;SDS011;4477;48.736;9.176;2023-08-12T11:17:29;4.55;;;2.85;;
8881;SDS011;4477;48.736;9.176;2023-08-12T11:20:00;4.13;;;2.92;;
8881;SDS011;4477;48.736;9.176;2023-08-12T11:22:29;4.07;;;2.75;;
8881;SDS011;4477;48.736;9.176;2023-08-12T11:24:56;3.00;;;2.30;;
8881;SDS011;4477;48.736;9.176;2023-08-12T11:27:23;6.90;;;2.90;;
8881;SDS011;4477;48.736;9.176;2023-08-12T11:29:50;3.55;;;2.90;;
8881;SDS011;4477;48.736;9.176;2023-08-12T11:32:18;5.00;;;2.88;;
8881;SDS011;4477;48.736;9.176;2023-08-12T11:34:45;4.80;;;2.83;;
8881;SDS011;4477;48.736;9.176;2023-08-12T11:37:13;4.10;;;2.90;;
8881;SDS011;4477;48.736;9.176;2023-08-12T11:39:41;6.28;;;3.03;;
8881;SDS011;4477;48.736;9.176;2023-08-12T11:42:08;4.53;;;3.17;;
8881;SDS011;4477;48.736;9.176;2023-08-12T11:44:35;5.05;;;3.10;;
8881;SDS011;4477;48.736;9.176;2023-08-12T11:47:02;5.50;;;2.95;;
8881;SDS011;4477;48.736;9.176;2023-08-12T11:49:29;5.75;;;2.78;;
8881;SDS011;4477;48.736;9.176;2023-08-12T11:51:56;5.63;;;3.08;;
8881;SDS011;4477;48.736;9.176;2023-08-12T11:54:25;5.75;;;2.70;;
8881;SDS011;4477;48.736;9.176;2023-08-12T11:56:52;4.10;;;2.80;;
8881;SDS011;4477;48.736;9.176;2023-08-12T11:59:22;3.78;;;2.80;;
8881;SDS011;4477;48.736;9.176;2023-08-12T12:01:49;6.22;;;2.80;;
8881;SDS011;4477;48.736;9.176;2023-08-12T12:04:16;4.10;;;2.50;;
8881;SDS011;4477;48.736;9.176;2023-08-12T12:06:45;4.43;;;2.70;;
8881;SDS011;4477;48.736;9.176;2023-08-12T12:09:13;5.72;;;3.03;;
8881;SDS011;4477;48.736;9.176;2023-08-12T12:11:41;3.80;;;2.65;;
8881;SDS011;4477;48.736;9.176;2023-08-12T12:14:09;7.88;;;2.95;;
8881;SDS011;4477;48.736;9.176;2023-08-12T12:16:39;4.18;;;3.00;;
8881;SDS011;4477;48.736;9.176;2023-08-12T12:19:12;7.07;;;3.20;;
8881;SDS011;4477;48.736;9.176;2023-08-12T12:21:40;7.32;;;4.15;;
8881;SDS011;4477;48.736;9.176;2023-08-12T12:24:08;6.78;;;5.10;;
8881;SDS011;4477;48.736;9.176;2023-08-12T12:26:35;8.48;;;4.88;;
8881;SDS011;4477;48.736;9.176;2023-08-12T12:29:04;5.30;;;4.72;;
8881;SDS011;4477;48.736;9.176;2023-08-12T12:31:32;6.82;;;5.53;;
8881;SDS011;4477;48.736;9.176;2023-08-12T12:33:59;6.55;;;5.20;;
8881;SDS011;4477;48.736;9.176;2023-08-12T12:36:26;6.10;;;5.55;;
8881;SDS011;4477;48.736;9.176;2023-08-12T12:38:53;6.77;;;6.00;;
8881;SDS011;4477;48.736;9.176;2023-08-12T12:41:20;7.07;;;5.73;;
8881;SDS011;4477;48.736;9.176;2023-08-12T12:43:47;7.20;;;6.37;;
8881;SDS011;4477;48.736;9.176;2023-08-12T12:46:15;6.87;;;6.27;;
8881;SDS011;4477;48.736;9.176;2023-08-12T12:48:43;8.03;;;6.83;;
8881;SDS011;4477;48.736;9.176;2023-08-12T12:51:10;9.03;;;7.53;;
8881;SDS011;4477;48.736;9.176;2023-08-12T12:53:37;15.90;;;9.23;;
8881;SDS011;4477;48.736;9.176;2023-08-12T12:56:05;12.53;;;8.70;;
8881;SDS011;4477;48.736;9.176;2023-08-12T12:58:32;10.40;;;9.27;;
8881;SDS011;4477;48.736;9.176;2023-08-12T13:01:02;10.07;;;9.07;;
8881;SDS011;4477;48.736;9.176;2023-08-12T13:03:31;10.00;;;9.00;;
8881;SDS011;4477;48.736;9.176;2023-08-12T13:05:58;10.53;;;8.83;;
8881;SDS011;4477;48.736;9.176;2023-08-12T13:08:27;10.03;;;8.43;;
8881;SDS011;4477;48.736;9.176;2023-08-12T13:10:55;10.43;;;9.40;;
8881;SDS011;4477;48.736;9.176;2023-08-12T13:13:22;9.37;;;8.47;;
8881;SDS011;4477;48.736;9.176;2023-08-12T13:15:49;10.07;;;9.00;;
8881;SDS011;4477;48.736;9.176;2023-08-12T13:18:16;9.77;;;8.43;;
8881;SDS011;4477;48.736;9.176;2023-08-12T13:20:45;10.17;;;8.60;;
8881;SDS011;4477;48.736;9.176;2023-08-12T13:23:12;11.70;;;10.10;;
8881;SDS011;4477;48.736;9.176;2023-08-12T13:25:39;10.97;;;10.07;;
8881;SDS011;4477;48.736;9.176;2023-08-12T13:28:06;11.33;;;10.33;;
8881;SDS011;4477;48.736;9.176;2023-08-12T13:30:33;11.83;;;10.63;;
8881;SDS011;4477;48.736;9.176;2023-08-12T13:33:00;10.90;;;9.80;;
8881;SDS011;4477;48.736;9.176;2023-08-12T13:35:28;9.40;;;8.40;;
8881;SDS011;4477;48.736;9.176;2023-08-12T13:37:56;10.40;;;7.87;;
8881;SDS011;4477;48.736;9.176;2023-08-12T13:40:23;8.70;;;6.97;;
8881;SDS011;4477;48.736;9.176;2023-08-12T13:42:50;8.53;;;5.83;;
8881;SDS011;4477;48.736;9.176;2023-08-12T13:45:17;5.77;;;5.20;;
8881;SDS011;4477;48.736;9.176;2023-08-12T13:47:44;7.20;;;4.70;;
8881;SDS011;4477;48.736;9.176;2023-08-12T13:50:11;6.50;;;4.57;;
8881;SDS011;4477;48.736;9.176;2023-08-12T13:52:38;8.20;;;3.90;;
8881;SDS011;4477;48.736;9.176;2023-08-12T13:55:07;8.30;;;3.88;;
8881;SDS011;4477;48.736;9.176;2023-08-12T13:57:35;6.35;;;3.17;;
8881;SDS011;4477;48.736;9.176;2023-08-12T14:00:02;4.85;;;3.28;;
8881;SDS011;4477;48.736;9.176;2023-08-12T14:02:34;5.78;;;3.03;;
8881;SDS011;4477;48.736;9.176;2023-08-12T14:05:01;4.18;;;3.17;;
8881;SDS011;4477;48.736;9.176;2023-08-12T14:07:29;6.03;;;2.83;;
8881;SDS011;4477;48.736;9.176;2023-08-12T14:09:57;4.78;;;2.63;;
8881;SDS011;4477;48.736;9.176;2023-08-12T14:12:26;6.65;;;2.80;;
8881;SDS011;4477;48.736;9.176;2023-08-12T14:14:53;4.30;;;3.10;;
8881;SDS011;4477;48.736;9.176;2023-08-12T14:17:20;4.18;;;3.30;;
8881;SDS011;4477;48.736;9.176;2023-08-12T14:19:48;5.35;;;2.97;;
8881;SDS011;4477;48.736;9.176;2023-08-12T14:22:16;4.47;;;3.03;;
8881;SDS011;4477;48.736;9.176;2023-08-12T14:24:43;3.67;;;2.60;;
8881;SDS011;4477;48.736;9.176;2023-08-12T14:27:10;3.80;;;2.85;;
8881;SDS011;4477;48.736;9.176;2023-08-12T14:29:39;2.97;;;2.25;;
8881;SDS011;4477;48.736;9.176;2023-08-12T14:32:06;3.30;;;2.78;;
8881;SDS011;4477;48.736;9.176;2023-08-12T14:34:33;7.05;;;3.10;;
8881;SDS011;4477;48.736;9.176;2023-08-12T14:37:02;4.40;;;2.55;;
8881;SDS011;4477;48.736;9.176;2023-08-12T14:39:29;2.63;;;2.00;;
8881;SDS011;4477;48.736;9.176;2023-08-12T14:41:57;3.63;;;2.50;;
8881;SDS011;4477;48.736;9.176;2023-08-12T14:44:24;6.07;;;2.30;;
8881;SDS011;4477;48.736;9.176;2023-08-12T14:46:52;2.22;;;2.03;;
8881;SDS011;4477;48.736;9.176;2023-08-12T14:49:19;4.20;;;2.40;;
8881;SDS011;4477;48.736;9.176;2023-08-12T14:51:47;3.90;;;2.20;;
8881;SDS011;4477;48.736;9.176;2023-08-12T14:54:14;3.13;;;2.40;;
8881;SDS011;4477;48.736;9.176;2023-08-12T14:56:41;2.22;;;2.03;;
8881;SDS011;4477;48.736;9.176;2023-08-12T14:59:09;2.05;;;1.70;;
8881;SDS011;4477;48.736;9.176;2023-08-12T15:01:36;2.13;;;1.55;;
8881;SDS011;4477;48.736;9.176;2023-08-12T15:04:05;1.92;;;1.70;;
8881;SDS011;4477;48.736;9.176;2023-08-12T15:06:32;3.03;;;1.88;;
8881;SDS011;4477;48.736;9.176;2023-08-12T15:08:59;1.95;;;1.63;;
8881;SDS011;4477;48.736;9.176;2023-08-12T15:11:27;1.92;;;1.75;;
8881;SDS011;4477;48.736;9.176;2023-08-12T15:13:54;1.98;;;1.65;;
8881;SDS011;4477;48.736;9.176;2023-08-12T15:16:21;2.30;;;1.67;;
8881;SDS011;4477;48.736;9.176;2023-08-12T15:18:48;3.22;;;1.63;;
8881;SDS011;4477;48.736;9.176;2023-08-12T15:21:17;1.90;;;1.48;;